地図

経路データ

SID SEASON NUMBER BASIN SUBBASIN NAME ISO_TIME NATURE LAT LON WMO_WIND WMO_PRES WMO_AGENCY TRACK_TYPE DIST2LAND LANDFALL IFLAG USA_AGENCY USA_ATCF_ID USA_LAT USA_LON USA_RECORD USA_STATUS USA_WIND USA_PRES USA_SSHS USA_R34_NE USA_R34_SE USA_R34_SW USA_R34_NW USA_R50_NE USA_R50_SE USA_R50_SW USA_R50_NW USA_R64_NE USA_R64_SE USA_R64_SW USA_R64_NW USA_POCI USA_ROCI USA_RMW USA_EYE TOKYO_LAT TOKYO_LON TOKYO_GRADE TOKYO_WIND TOKYO_PRES TOKYO_R50_DIR TOKYO_R50_LONG TOKYO_R50_SHORT TOKYO_R30_DIR TOKYO_R30_LONG TOKYO_R30_SHORT TOKYO_LAND CMA_LAT CMA_LON CMA_CAT CMA_WIND CMA_PRES HKO_LAT HKO_LON HKO_CAT HKO_WIND HKO_PRES NEWDELHI_LAT NEWDELHI_LON NEWDELHI_GRADE NEWDELHI_WIND NEWDELHI_PRES NEWDELHI_CI NEWDELHI_DP NEWDELHI_POCI REUNION_LAT REUNION_LON REUNION_TYPE REUNION_WIND REUNION_PRES REUNION_TNUM REUNION_CI REUNION_RMW REUNION_R34_NE REUNION_R34_SE REUNION_R34_SW REUNION_R34_NW REUNION_R50_NE REUNION_R50_SE REUNION_R50_SW REUNION_R50_NW REUNION_R64_NE REUNION_R64_SE REUNION_R64_SW REUNION_R64_NW BOM_LAT BOM_LON BOM_TYPE BOM_WIND BOM_PRES BOM_TNUM BOM_CI BOM_RMW BOM_R34_NE BOM_R34_SE BOM_R34_SW BOM_R34_NW BOM_R50_NE BOM_R50_SE BOM_R50_SW BOM_R50_NW BOM_R64_NE BOM_R64_SE BOM_R64_SW BOM_R64_NW BOM_ROCI BOM_POCI BOM_EYE BOM_POS_METHOD BOM_PRES_METHOD NADI_LAT NADI_LON NADI_CAT NADI_WIND NADI_PRES WELLINGTON_LAT WELLINGTON_LON WELLINGTON_WIND WELLINGTON_PRES DS824_LAT DS824_LON DS824_STAGE DS824_WIND DS824_PRES TD9636_LAT TD9636_LON TD9636_STAGE TD9636_WIND TD9636_PRES TD9635_LAT TD9635_LON TD9635_WIND TD9635_PRES TD9635_ROCI NEUMANN_LAT NEUMANN_LON NEUMANN_CLASS NEUMANN_WIND NEUMANN_PRES MLC_LAT MLC_LON MLC_CLASS MLC_WIND MLC_PRES USA_GUST BOM_GUST BOM_GUST_PER REUNION_GUST REUNION_GUST_PER USA_SEAHGT USA_SEARAD_NE USA_SEARAD_SE USA_SEARAD_SW USA_SEARAD_NW STORM_SPEED STORM_DIR
1981282N15256 1981 91 EP MM NORMA 1981-10-08 18:00:00 TS 14.5000 -104.500 25 hurdat_epa main 436 429 O_________O___ hurdat_epa EP141981 14.5000 -104.500 TD 25 -1 14.5000 -104.500 1 25 7 292
1981282N15256 1981 91 EP MM NORMA 1981-10-08 21:00:00 TS 14.6427 -104.856 main 440 427 P_________P___ EP141981 14.6426 -104.852 TD 27 -1 14.6432 -104.869 1 27 7 294
1981282N15256 1981 91 EP MM NORMA 1981-10-09 00:00:00 TS 14.8000 -105.200 30 hurdat_epa main 431 426 O_________O___ hurdat_epa EP141981 14.8000 -105.200 TD 30 -1 14.8000 -105.200 1 30 7 298
1981282N15256 1981 91 EP MM NORMA 1981-10-09 03:00:00 TS 14.9844 -105.514 main 426 418 P_________P___ EP141981 14.9850 -105.530 TD 37 0 14.9826 -105.467 1 33 7 306
1981282N15256 1981 91 EP MM NORMA 1981-10-09 06:00:00 TS 15.1984 -105.772 45 hurdat_epa main 424 413 O_________P___ hurdat_epa EP141981 15.2000 -105.800 TS 45 0 15.1934 -105.688 1 37 6 318
1981282N15256 1981 91 EP MM NORMA 1981-10-09 09:00:00 TS 15.4343 -105.941 main 413 401 P_________P___ EP141981 15.4349 -105.958 TS 45 0 15.4326 -105.889 1 41 6 328
1981282N15256 1981 91 EP MM NORMA 1981-10-09 12:00:00 TS 15.7000 -106.100 45 hurdat_epa main 401 391 O_________O___ hurdat_epa EP141981 15.7000 -106.100 TS 45 0 15.7000 -106.100 2 45 7 326
1981282N15256 1981 91 EP MM NORMA 1981-10-09 15:00:00 TS 16.0156 -106.346 main 391 376 P_________P___ EP141981 16.0150 -106.342 TS 55 0 16.0171 -106.356 2 55 8 321
1981282N15256 1981 91 EP MM NORMA 1981-10-09 18:00:00 TS 16.3000 -106.600 65 hurdat_epa main 376 368 O_________O___ hurdat_epa EP141981 16.3000 -106.600 HU 65 1 16.3000 -106.600 3 65 6 315
1981282N15256 1981 91 EP MM NORMA 1981-10-09 21:00:00 TS 16.4661 -106.808 main 368 366 P_________P___ EP141981 16.4650 -106.808 HU 77 1 16.4695 -106.808 3 77 5 308
1981282N15256 1981 91 EP MM NORMA 1981-10-10 00:00:00 TS 16.6000 -107.000 90 hurdat_epa main 372 369 O_________O___ hurdat_epa EP141981 16.6000 -107.000 HU 90 2 16.6000 -107.000 4 90 5 311
1981282N15256 1981 91 EP MM NORMA 1981-10-10 03:00:00 TS 16.7886 -107.200 main 369 368 P_________P___ EP141981 16.7925 -107.200 HU 90 2 16.7770 -107.200 4 92 6 316
1981282N15256 1981 91 EP MM NORMA 1981-10-10 06:00:00 TS 16.9932 -107.400 90 hurdat_epa main 368 368 O_________P___ hurdat_epa EP141981 17.0000 -107.400 HU 90 2 16.9727 -107.400 4 95 6 317
1981282N15256 1981 91 EP MM NORMA 1981-10-10 09:00:00 TS 17.1955 -107.600 main 368 368 P_________P___ EP141981 17.2000 -107.600 HU 95 2 17.1821 -107.600 4 97 6 317
1981282N15256 1981 91 EP MM NORMA 1981-10-10 12:00:00 TS 17.4000 -107.800 100 hurdat_epa main 368 368 O_________O___ hurdat_epa EP141981 17.4000 -107.800 HU 100 3 17.4000 -107.800 4 100 6 316
1981282N15256 1981 91 EP MM NORMA 1981-10-10 15:00:00 TS 17.5927 -108.008 main 368 368 P_________P___ EP141981 17.5925 -108.000 HU 105 3 17.5935 -108.032 4 102 6 315
1981282N15256 1981 91 EP MM NORMA 1981-10-10 18:00:00 TS 17.7994 -108.215 110 hurdat_epa main 372 372 O_________P___ hurdat_epa EP141981 17.8000 -108.200 HU 110 3 17.7977 -108.260 4 105 6 317
1981282N15256 1981 91 EP MM NORMA 1981-10-10 21:00:00 TS 18.0276 -108.431 main 377 374 P_________P___ EP141981 18.0275 -108.422 HU 110 3 18.0279 -108.457 4 107 6 324
1981282N15256 1981 91 EP MM NORMA 1981-10-11 00:00:00 TS 18.3000 -108.600 110 hurdat_epa main 377 370 O_________O___ hurdat_epa EP141981 18.3000 -108.600 HU 110 3 18.3000 -108.600 4 110 6 338
1981282N15256 1981 91 EP MM NORMA 1981-10-11 03:00:00 TS 18.6255 -108.689 main 370 350 P_________P___ EP141981 18.6275 -108.688 HU 105 3 18.6195 -108.694 4 105 7 351
1981282N15256 1981 91 EP MM NORMA 1981-10-11 06:00:00 TS 18.9956 -108.707 100 hurdat_epa main 350 332 O_________P___ hurdat_epa EP141981 19.0000 -108.700 HU 100 3 18.9822 -108.727 4 100 8 360
1981282N15256 1981 91 EP MM NORMA 1981-10-11 09:00:00 TS 19.3834 -108.695 main 332 310 P_________P___ EP141981 19.3849 -108.695 HU 95 2 19.3788 -108.697 4 95 8 7
1981282N15256 1981 91 EP MM NORMA 1981-10-11 12:00:00 TS 19.8000 -108.600 90 hurdat_epa main 310 282 O_________O___ hurdat_epa EP141981 19.8000 -108.600 HU 90 2 19.8000 -108.600 4 90 9 18
1981282N15256 1981 91 EP MM NORMA 1981-10-11 15:00:00 TS 20.2360 -108.393 main 282 252 P_________P___ EP141981 20.2426 -108.373 HU 92 2 20.2163 -108.452 4 90 10 26
1981282N15256 1981 91 EP MM NORMA 1981-10-11 18:00:00 TS 20.6888 -108.135 95 hurdat_epa main 252 241 O_________P___ hurdat_epa EP141981 20.7000 -108.100 HU 95 2 20.6551 -108.240 4 90 10 26
1981282N15256 1981 91 EP MM NORMA 1981-10-11 21:00:00 TS 21.1415 -107.932 main 241 219 P_________P___ EP141981 21.1498 -107.915 HU 92 2 21.1163 -107.983 4 90 10 24
1981282N15256 1981 91 EP MM NORMA 1981-10-12 00:00:00 TS 21.6000 -107.700 90 hurdat_epa main 219 166 O_________O___ hurdat_epa EP141981 21.6000 -107.700 HU 90 2 21.6000 -107.700 4 90 11 30
1981282N15256 1981 91 EP MM NORMA 1981-10-12 03:00:00 TS 22.0471 -107.370 main 166 98 P_________P___ EP141981 22.0276 -107.357 HU 90 2 22.1054 -107.407 4 90 11 34
1981282N15256 1981 91 EP MM NORMA 1981-10-12 06:00:00 TS 22.5320 -107.027 90 hurdat_epa main 98 42 O_________P___ hurdat_epa EP141981 22.5000 -107.000 HU 90 2 22.6278 -107.109 4 90 12 29
1981282N15256 1981 91 EP MM NORMA 1981-10-12 09:00:00 TS 23.0928 -106.744 main 32 0 P_________P___ EP141981 23.0699 -106.723 HU 90 2 23.1613 -106.806 4 90 13 23
1981282N15256 1981 91 EP MM NORMA 1981-10-12 12:00:00 TS 23.7000 -106.500 90 hurdat_epa main 0 O_________O___ hurdat_epa EP141981 23.7000 -106.500 HU 90 2 23.7000 -106.500 4 90 13 20

IBTrACS Databaseについて

本データベースは、米国NOAAが公開する1842年以降の世界の熱帯低気圧のベストトラックデータアーカイブInternational Best Track Archive for Climate Stewardship (IBTrACS)を、ウェブで閲覧しやすい形式に変換したものです。

最終更新日:2021-12-03